ADDS METAR Data INFO
IDs: Format: Raw Decoded Include TAF

Data at: 0749 UTC 20 Feb 2018

KDKR 200735Z AUTO 15010G15KT 10SM SCT018 BKN022 OVC029 21/19 A2998 RMK AO2
KDKR 200715Z AUTO 17009G16KT 10SM FEW018 OVC025 21/19 A2998 RMK AO2
KDKR 200655Z AUTO 16010G17KT 10SM -RA BKN023 BKN029 21/19 A2998 RMK AO2
KDKR 200635Z AUTO 16011G18KT 10SM -RA SCT028 21/19 A2998 RMK AO2
KDKR 200615Z AUTO 15012G20KT 10SM -RA FEW013 FEW022 21/19 A2997 RMK AO2
KDKR 200555Z AUTO 16009G17KT 10SM -RA FEW013 SCT022 21/19 A2998 RMK AO2
KDKR 200535Z AUTO 16011G17KT 10SM -RA SCT013 SCT023 21/19 A2997 RMK AO2
KDKR 200515Z AUTO 15010G19KT 10SM -RA FEW011 SCT025 22/19 A2997 RMK AO2
KDKR 200455Z AUTO 16011G18KT 10SM FEW011 FEW023 SCT033 22/19 A2997 RMK AO2
KDKR 200435Z AUTO 15013G18KT 10SM FEW012 SCT017 SCT029 21/19 A2997 RMK AO2
KDKR 200415Z AUTO 15012G18KT 9SM BKN012 BKN018 OVC028 21/19 A2997 RMK AO2
KDKR 200355Z AUTO 15008KT 10SM OVC012 22/19 A2998 RMK AO2
KDKR 200335Z AUTO 16009G14KT 10SM OVC012 22/19 A2998 RMK AO2
KDKR 200315Z AUTO 16007G15KT 10SM OVC012 22/19 A2998 RMK AO2
KDKR 200255Z AUTO 16009G16KT 10SM OVC012 22/19 A2997 RMK AO2
KDKR 200235Z AUTO 16011G17KT 10SM OVC012 22/19 A2997 RMK AO2
KDKR 200215Z AUTO 15010KT 10SM OVC014 22/19 A2997 RMK AO2
KDKR 200155Z AUTO 16013G21KT 10SM -RA SCT016 BKN021 OVC060 22/18 A2996 RMK AO2
KDKR 200135Z AUTO 15011G16KT 10SM -RA OVC060 22/18 A2995 RMK AO2
KDKR 200115Z AUTO 16009G16KT 10SM -RA OVC060 22/18 A2995 RMK AO2
KDKR 200055Z AUTO 15009G16KT 10SM -RA OVC070 22/17 A2996 RMK AO2
KDKR 200035Z AUTO 16012G19KT 10SM BKN070 22/17 A2996 RMK AO2
KDKR 200015Z AUTO 15010G15KT 10SM FEW046 SCT070 SCT080 23/16 A2996 RMK AO2
KDKR 192355Z AUTO 15016G22KT 10SM FEW046 SCT060 23/16 A2995 RMK AO2
KDKR 192335Z AUTO 15013G23KT 10SM FEW080 23/17 A2995 RMK AO2
KDKR 192315Z AUTO 15009G17KT 10SM FEW060 FEW070 SCT080 24/17 A2994 RMK AO2
KDKR 192255Z AUTO 16016G23KT 130V190 10SM FEW040 SCT046 BKN049 24/17 A2994 RMK AO2
KDKR 192235Z AUTO 15012G22KT 10SM SCT042 SCT049 BKN060 24/17 A2994 RMK AO2
KDKR 192215Z AUTO 15013G20KT 10SM FEW045 BKN060 24/17 A2993 RMK AO2
KDKR 192155Z AUTO 15011G17KT 10SM BKN046 BKN055 25/17 A2993 RMK AO2
KDKR 192135Z AUTO 16009G18KT 10SM BKN046 BKN075 25/17 A2993 RMK AO2
KDKR 192115Z AUTO 15011G18KT 10SM FEW060 SCT070 25/17 A2993 RMK AO2
KDKR 192055Z AUTO 16010G17KT 10SM FEW045 SCT060 BKN070 25/17 A2993 RMK AO2
KDKR 192035Z AUTO 16010G18KT 10SM FEW038 SCT045 BKN055 25/17 A2994 RMK AO2
KDKR 192015Z AUTO 16008G18KT 10SM FEW042 SCT050 BKN065 26/17 A2994 RMK AO2
KDKR 191955Z AUTO 17013G22KT 10SM FEW033 SCT042 BKN050 25/17 A2994 RMK AO2
KDKR 191935Z AUTO 17008G19KT 120V180 10SM SCT034 BKN042 BKN050 25/18 A2995 RMK AO2
KDKR 191915Z AUTO 16012G20KT 10SM FEW034 FEW040 SCT048 25/18 A2996 RMK AO2
KDKR 191855Z AUTO 17015G25KT 10SM SCT035 SCT042 BKN049 25/17 A2997 RMK AO2
KDKR 191835Z AUTO 17013G24KT 10SM -RA FEW030 BKN036 BKN045 25/17 A2998 RMK AO2
KDKR 191815Z AUTO 16012G21KT 10SM SCT028 BKN036 24/18 A2999 RMK AO2
KDKR 191755Z AUTO 18014G22KT 10SM SCT026 BKN034 24/18 A3000 RMK AO2
KDKR 191735Z AUTO 16013G21KT 10SM BKN026 BKN034 24/18 A3000 RMK AO2
KDKR 191715Z AUTO 16016G22KT 10SM -RA SCT023 BKN030 BKN037 23/18 A3001 RMK AO2
KDKR 191655Z AUTO 17012G19KT 10SM -RA SCT022 BKN028 23/18 A3002 RMK AO2
KDKR 191635Z AUTO 17010G17KT 10SM -RA BKN022 OVC028 23/18 A3002 RMK AO2
KDKR 191615Z AUTO 16011G18KT 10SM FEW018 BKN024 BKN032 22/18 A3002 RMK AO2
KDKR 191555Z AUTO 17013G18KT 10SM SCT017 BKN023 BKN033 22/18 A3003 RMK AO2
KDKR 191535Z AUTO 16013G16KT 10SM -RA FEW015 SCT021 22/18 A3003 RMK AO2
KDKR 191515Z AUTO 16010G14KT 10SM -RA FEW033 21/18 A3003 RMK AO2
KDKR 191455Z AUTO 16012G16KT 10SM -RA BKN035 20/18 A3003 RMK AO2
KDKR 191435Z AUTO 16009KT 10SM -RA OVC035 20/18 A3003 RMK AO2
KDKR 191415Z AUTO 15009KT 10SM -RA BKN035 19/18 A3002 RMK AO2
KDKR 191355Z AUTO 15006KT 10SM -RA BKN037 19/18 A3002 RMK AO2
KDKR 191335Z AUTO 15006KT 10SM -RA OVC037 19/17 A3001 RMK AO2
KDKR 191315Z AUTO 15005KT 10SM BKN033 19/17 A3001 RMK AO2
KDKR 191255Z AUTO 15006KT 10SM -RA OVC031 19/17 A3001 RMK AO2
KDKR 191235Z AUTO 15005KT 10SM -RA OVC029 19/17 A3001 RMK AO2
KDKR 191215Z AUTO 15006KT 10SM OVC027 19/17 A3001 RMK AO2
KDKR 191155Z AUTO 15006KT 10SM -RA OVC025 19/17 A3000 RMK AO2
KDKR 191135Z AUTO 15007KT 10SM -RA OVC027 19/17 A3000 RMK AO2
KDKR 191115Z AUTO 16005KT 10SM -RA OVC027 19/17 A3000 RMK AO2
KDKR 191055Z AUTO 16007KT 10SM -RA BKN027 18/17 A3000 RMK AO2
KDKR 191035Z AUTO 15006KT 10SM -RA FEW018 FEW027 18/17 A2999 RMK AO2
KDKR 191015Z AUTO 14007KT 10SM -RA SCT020 SCT029 18/17 A2999 RMK AO2
KDKR 190955Z AUTO 14008KT 110V170 10SM -RA SCT020 BKN029 18/17 A2999 RMK AO2
KDKR 190935Z AUTO 14006KT 10SM -RA FEW021 OVC029 18/17 A3000 RMK AO2
KDKR 190915Z AUTO 13005KT 10SM FEW021 OVC029 18/17 A3000 RMK AO2
KDKR 190855Z AUTO 15006KT 10SM -RA SCT021 OVC029 18/17 A3000 RMK AO2
KDKR 190835Z AUTO 16006KT 10SM -RA BKN018 BKN026 OVC031 18/17 A3000 RMK AO2
KDKR 190815Z AUTO 17006KT 10SM BKN016 BKN023 OVC027 18/17 A3000 RMK AO2
KDKR 190755Z AUTO 18006KT 10SM SCT016 BKN024 18/17 A3000 RMK AO2
KDKR 190735Z AUTO 16008KT 10SM -RA FEW019 18/17 A3000 RMK AO2
KDKR 190715Z AUTO 16009KT 10SM CLR 18/17 A2999 RMK AO2
KDKR 190655Z AUTO 15008KT 10SM -RA FEW017 19/17 A3000 RMK AO2
KDKR 190635Z AUTO 15009KT 10SM -RA SCT015 SCT021 19/17 A3000 RMK AO2
KDKR 190615Z AUTO 16011G16KT 10SM -RA BKN017 BKN024 19/17 A3000 RMK AO2
KDKR 190555Z AUTO 16009G14KT 10SM -RA SCT014 BKN020 19/17 A3000 RMK AO2
KDKR 190535Z AUTO 16007KT 10SM -RA SCT014 19/17 A3001 RMK AO2
KDKR 190515Z AUTO 16008G16KT 10SM -RA BKN016 19/17 A3001 RMK AO2
KDKR 190455Z AUTO 15010G16KT 10SM -RA BKN014 BKN019 19/18 A3002 RMK AO2
KDKR 190435Z AUTO 16008G15KT 10SM -RA SCT014 19/18 A3002 RMK AO2
KDKR 190415Z AUTO 15010G16KT 10SM CLR 19/18 A3001 RMK AO2
KDKR 190355Z AUTO 16010G18KT 10SM -RA CLR 20/18 A3001 RMK AO2
KDKR 190335Z AUTO 16008G17KT 10SM -RA CLR 20/18 A3001 RMK AO2
KDKR 190315Z AUTO 16010G17KT 10SM FEW014 20/18 A3001 RMK AO2
KDKR 190255Z AUTO 15012G17KT 10SM -RA CLR 20/18 A3001 RMK AO2
KDKR 190235Z AUTO 16013G18KT 10SM CLR 20/18 A3001 RMK AO2
KDKR 190215Z AUTO 16011G19KT 10SM -RA CLR 20/18 A3001 RMK AO2
KDKR 190155Z AUTO 16011G18KT 10SM -RA CLR 21/17 A3000 RMK AO2
KDKR 190135Z AUTO 16010G17KT 10SM -RA CLR 21/17 A3000 RMK AO2
KDKR 190115Z AUTO 15010G17KT 10SM -RA FEW070 22/18 A2999 RMK AO2
KDKR 190055Z AUTO 16009G15KT 10SM -RA FEW070 22/18 A2999 RMK AO2
KDKR 190035Z AUTO 16009KT 10SM -RA FEW045 SCT070 22/18 A3000 RMK AO2
KDKR 190015Z AUTO 14007KT 10SM -RA CLR 22/18 A3000 RMK AO2
KDKR 182355Z AUTO 14007KT 10SM FEW080 22/18 A3000 RMK AO2
KDKR 182335Z AUTO 14006KT 10SM -RA CLR 23/18 A3000 RMK AO2
KDKR 182315Z AUTO 14008KT 10SM CLR 23/18 A3001 RMK AO2
KDKR 182255Z AUTO 16008KT 10SM -RA CLR 23/18 A3001 RMK AO2
KDKR 182235Z AUTO 15008G17KT 10SM -RA CLR 23/18 A3002 RMK AO2
KDKR 182215Z AUTO 15008KT 10SM SCT027 SCT035 23/18 A3002 RMK AO2
KDKR 182155Z AUTO 15005KT 10SM BKN025 BKN033 23/18 A3003 RMK AO2
KDKR 182135Z AUTO 15005KT 10SM SCT022 BKN026 OVC033 23/18 A3003 RMK AO2
KDKR 182115Z AUTO 17003KT 10SM -RA BKN020 BKN028 23/18 A3005 RMK AO2
KDKR 182055Z AUTO 00000KT 10SM SCT017 BKN070 22/18 A3005 RMK AO2
KDKR 182035Z AUTO 15006KT 10SM BKN014 BKN070 21/17 A3006 RMK AO2
KDKR 182015Z AUTO 00000KT 10SM OVC010 20/17 A3007 RMK AO2
KDKR 181955Z AUTO 00000KT 10SM BKN008 OVC014 19/17 A3008 RMK AO2